createdAt,value
2017-02-26T00:06:49.935Z,7
2017-02-26T00:16:49.941Z,8
2017-02-26T00:26:49.823Z,7
2017-02-26T00:36:49.919Z,7
2017-02-26T00:46:49.985Z,7
2017-02-26T00:56:49.930Z,8
2017-02-26T01:06:49.885Z,8
2017-02-26T01:16:49.919Z,7
2017-02-26T01:26:49.912Z,7
2017-02-26T01:36:49.966Z,8
2017-02-26T01:46:49.884Z,8
2017-02-26T01:56:49.874Z,9
2017-02-26T02:06:49.959Z,7
2017-02-26T02:16:50.002Z,9
2017-02-26T02:26:49.992Z,8
2017-02-26T02:36:50.060Z,8
2017-02-26T02:46:50.019Z,8
2017-02-26T02:56:49.927Z,8
2017-02-26T03:06:49.988Z,8
2017-02-26T03:16:49.967Z,10
2017-02-26T03:26:50.036Z,8
2017-02-26T03:36:50.389Z,8
2017-02-26T03:46:50.029Z,7
2017-02-26T03:56:50.013Z,8
2017-02-26T04:06:50.093Z,8
2017-02-26T04:16:50.028Z,8
2017-02-26T04:26:50.123Z,8
2017-02-26T04:36:50.051Z,8
2017-02-26T04:46:50.048Z,8
2017-02-26T04:56:50.127Z,7
2017-02-26T05:06:50.058Z,7
2017-02-26T05:16:50.050Z,8
2017-02-26T05:26:50.075Z,7
2017-02-26T05:36:50.103Z,7
2017-02-26T05:46:50.138Z,6
2017-02-26T05:56:50.141Z,8
2017-02-26T06:06:50.106Z,6
2017-02-26T06:16:50.165Z,6
2017-02-26T06:26:50.154Z,7
2017-02-26T06:36:50.145Z,7
2017-02-26T06:46:50.150Z,6
2017-02-26T06:56:50.129Z,7
2017-02-26T07:06:50.211Z,6
2017-02-26T07:16:50.189Z,6
2017-02-26T07:26:50.199Z,6
2017-02-26T07:36:50.228Z,7
2017-02-26T07:46:50.229Z,6
2017-02-26T07:56:50.241Z,6
2017-02-26T08:06:50.210Z,7
2017-02-26T08:16:50.291Z,6
2017-02-26T08:26:50.295Z,8
2017-02-26T08:36:50.297Z,7
2017-02-26T08:46:50.246Z,6
2017-02-26T08:56:50.362Z,6
2017-02-26T09:06:50.319Z,7
2017-02-26T09:16:50.410Z,6
2017-02-26T09:26:50.271Z,6
2017-02-26T09:36:50.303Z,6
2017-02-26T09:46:50.359Z,6
2017-02-26T09:56:50.419Z,6
2017-02-26T10:06:50.543Z,8
2017-02-26T10:16:50.473Z,7
2017-02-26T10:26:50.405Z,8
2017-02-26T10:36:50.357Z,8
2017-02-26T10:46:50.416Z,9
2017-02-26T10:56:50.374Z,12
2017-02-26T11:06:50.477Z,11
2017-02-26T11:16:50.592Z,8
2017-02-26T11:26:50.552Z,7
2017-02-26T11:36:50.587Z,9
2017-02-26T11:46:50.598Z,12
2017-02-26T11:56:50.473Z,13
2017-02-26T12:06:50.781Z,13
2017-02-26T12:16:50.491Z,15
2017-02-26T12:26:50.598Z,13
2017-02-26T12:36:50.901Z,13
2017-02-26T12:46:50.629Z,13
2017-02-26T12:56:50.644Z,12
2017-02-26T13:06:50.461Z,13
2017-02-26T13:16:50.495Z,13
2017-02-26T13:26:50.524Z,14
2017-02-26T13:36:50.522Z,12
2017-02-26T13:46:50.542Z,12
2017-02-26T13:56:50.587Z,13
2017-02-26T14:06:50.616Z,12
2017-02-26T14:16:50.529Z,13
2017-02-26T14:26:50.570Z,10
2017-02-26T14:36:50.725Z,12
2017-02-26T14:46:50.626Z,11
2017-02-26T14:56:50.602Z,8
2017-02-26T15:06:50.682Z,10
2017-02-26T15:16:50.740Z,9
2017-02-26T15:26:52.213Z,11
2017-02-26T15:36:50.683Z,10
2017-02-26T15:46:50.671Z,9
2017-02-26T15:56:50.677Z,9
2017-02-26T16:06:51.291Z,10
2017-02-26T16:16:50.709Z,10
2017-02-26T16:26:50.720Z,10
2017-02-26T16:36:51.353Z,12
2017-02-26T16:46:51.570Z,10
2017-02-26T16:56:54.262Z,11
2017-02-26T17:06:50.745Z,11
2017-02-26T17:17:06.344Z,12
2017-02-26T17:26:50.809Z,12
2017-02-26T17:36:50.828Z,14
2017-02-26T17:46:50.819Z,13
2017-02-26T17:56:50.797Z,14
2017-02-26T18:06:52.118Z,12
2017-02-26T18:16:53.609Z,12
2017-02-26T18:26:51.566Z,11
2017-02-26T18:36:50.903Z,10
2017-02-26T18:46:50.905Z,10
2017-02-26T18:56:50.931Z,8
2017-02-26T19:06:52.398Z,7
2017-02-26T19:16:51.049Z,8
2017-02-26T19:26:50.946Z,8
2017-02-26T19:36:54.514Z,6
2017-02-26T19:46:51.477Z,6
2017-02-26T19:56:50.918Z,7
